Time;durP1;ratioP1;P1;durP2;ratioP2;P2;SDS_P1;SDS_P2;PMS_P1;PMS_P2;Temp;Humidity;BMP_temperature;BMP_pressure;BME280_temperature;BME280_humidity;BME280_pressure;Samples;Min_cycle;Max_cycle;Signal;HPM_P1;HPM_P2
2022/08/12 04:00:24;;;;;;;3.88;3.15;;;14.00;94.30;;;;;;6051346;23;19917;31
2022/08/12 04:02:57;;;;;;;5.20;3.08;;;13.90;94.00;;;;;;4937614;28;19927;-78
2022/08/12 04:05:24;;;;;;;3.97;3.13;;;13.80;94.00;;;;;;4939184;28;20031;-78
2022/08/12 04:07:50;;;;;;;4.95;3.22;;;13.80;94.20;;;;;;4954534;28;20044;-78
2022/08/12 04:10:17;;;;;;;3.97;3.20;;;13.80;94.30;;;;;;4939610;28;20075;-77
2022/08/12 04:15:30;;;;;;;4.90;3.30;;;13.70;94.50;;;;;;4986884;23;20043;-74
2022/08/12 04:17:57;;;;;;;5.72;4.45;;;13.70;94.60;;;;;;4975761;28;20051;-74
2022/08/12 04:20:22;;;;;;;4.10;3.25;;;13.70;94.60;;;;;;4977451;28;20532;-74
2022/08/12 04:22:48;;;;;;;4.97;3.30;;;13.70;94.60;;;;;;4977864;28;20031;-74
2022/08/12 04:25:14;;;;;;;5.18;3.47;;;13.70;94.70;;;;;;4973318;28;20031;-74
2022/08/12 04:27:43;;;;;;;4.63;3.10;;;13.70;94.70;;;;;;4967163;28;20521;-72
2022/08/12 04:30:09;;;;;;;5.03;3.00;;;13.70;94.70;;;;;;4957965;28;20063;-72
2022/08/12 04:32:35;;;;;;;4.03;3.50;;;13.70;94.70;;;;;;4958175;28;20036;-72
2022/08/12 04:35:02;;;;;;;3.78;3.38;;;13.70;94.80;;;;;;4962996;28;20043;-72
2022/08/12 04:37:28;;;;;;;3.95;3.40;;;13.70;94.80;;;;;;4975230;28;20053;-74
2022/08/12 04:39:55;;;;;;;5.50;3.10;;;13.70;94.90;;;;;;4957979;28;20130;-75
2022/08/12 04:42:24;;;;;;;4.05;3.17;;;13.70;94.80;;;;;;4958461;28;20046;-75
2022/08/12 04:44:50;;;;;;;7.25;3.60;;;13.70;94.90;;;;;;4960495;28;20070;-75
2022/08/12 04:47:16;;;;;;;6.30;3.22;;;13.80;95.10;;;;;;4976728;28;20512;-75
2022/08/12 04:49:44;;;;;;;6.32;3.50;;;13.80;95.00;;;;;;4957939;28;20036;-75
2022/08/12 04:52:10;;;;;;;6.95;3.33;;;13.80;94.80;;;;;;4957948;28;20063;-74
2022/08/12 04:54:36;;;;;;;5.57;3.45;;;13.80;95.20;;;;;;4957274;28;20031;-74
2022/08/12 04:57:04;;;;;;;5.05;3.50;;;13.80;95.00;;;;;;4963364;28;20090;-74
2022/08/12 04:59:33;;;;;;;5.43;3.70;;;13.80;94.90;;;;;;4958490;28;20032;-74
2022/08/12 05:01:59;;;;;;;4.80;3.47;;;13.80;95.10;;;;;;4957377;28;20036;-74
2022/08/12 05:04:26;;;;;;;6.10;3.47;;;13.80;95.10;;;;;;4955925;28;20490;-74
2022/08/12 05:06:51;;;;;;;4.53;3.83;;;13.80;95.20;;;;;;4960692;28;20162;-74
2022/08/12 05:09:17;;;;;;;5.13;3.40;;;13.90;95.40;;;;;;4960678;28;20187;-74
2022/08/12 05:11:46;;;;;;;5.30;3.47;;;13.90;95.30;;;;;;4968180;28;20171;-74
2022/08/12 05:14:12;;;;;;;4.93;3.30;;;14.00;95.30;;;;;;4976236;28;20054;-74
2022/08/12 05:16:38;;;;;;;3.72;3.28;;;14.00;95.10;;;;;;4965097;28;20043;-74
2022/08/12 05:19:04;;;;;;;6.45;3.65;;;14.00;95.10;;;;;;4971180;28;20047;-74
2022/08/12 05:21:30;;;;;;;5.43;3.13;;;14.00;95.10;;;;;;4967655;28;20043;-74
2022/08/12 05:23:56;;;;;;;4.68;3.67;;;14.10;95.00;;;;;;4970525;28;20039;-74
2022/08/12 05:26:22;;;;;;;4.80;3.45;;;14.10;95.10;;;;;;4976275;28;20039;-74
2022/08/12 05:28:48;;;;;;;4.93;3.70;;;14.20;95.00;;;;;;4976644;28;20041;-74
2022/08/12 05:31:15;;;;;;;5.15;4.07;;;14.30;95.00;;;;;;4966148;28;20486;-74
2022/08/12 05:33:44;;;;;;;4.00;3.58;;;14.40;95.00;;;;;;4967932;28;20420;-74
2022/08/12 05:36:12;;;;;;;5.72;3.85;;;14.50;94.80;;;;;;4959439;28;20046;-74
2022/08/12 05:38:56;;;;;;;4.72;3.40;;;14.60;94.80;;;;;;4976113;28;20510;-74
2022/08/12 05:41:27;;;;;;;4.32;3.75;;;14.70;94.60;;;;;;4974811;28;20031;-74
2022/08/12 05:44:02;;;;;;;6.15;3.85;;;14.80;94.40;;;;;;4976848;28;20497;-74
2022/08/12 05:46:29;;;;;;;6.15;3.85;;;14.90;94.40;;;;;;4976532;28;20034;-74
2022/08/12 05:48:57;;;;;;;6.95;3.38;;;15.00;94.30;;;;;;4976146;28;20609;-75
2022/08/12 05:51:24;;;;;;;4.45;2.92;;;15.10;94.20;;;;;;4969569;28;20039;-79
2022/08/12 05:53:52;;;;;;;5.95;3.55;;;15.20;94.00;;;;;;4956767;28;20059;-74
2022/08/12 05:56:19;;;;;;;8.13;3.83;;;15.30;93.90;;;;;;4956607;28;20166;-75
2022/08/12 05:58:46;;;;;;;4.43;2.85;;;15.40;93.50;;;;;;4956727;28;20044;-74
2022/08/12 06:01:12;;;;;;;3.78;3.03;;;15.60;93.50;;;;;;4959601;28;20039;-75
2022/08/12 06:03:37;;;;;;;7.32;3.38;;;15.60;93.20;;;;;;4957703;28;20484;-75
2022/08/12 06:06:05;;;;;;;5.28;2.83;;;15.80;92.60;;;;;;4956619;28;20047;-75
2022/08/12 06:08:34;;;;;;;4.15;2.78;;;15.90;92.30;;;;;;4956520;28;20031;-75
2022/08/12 06:11:01;;;;;;;5.85;3.15;;;16.10;91.80;;;;;;4966770;28;20539;-75
2022/08/12 06:13:26;;;;;;;6.68;2.72;;;16.30;91.60;;;;;;4974617;28;20039;-74
2022/08/12 06:15:52;;;;;;;6.82;3.08;;;16.50;91.50;;;;;;4975497;28;20043;-75
2022/08/12 06:18:18;;;;;;;5.57;2.65;;;16.70;90.80;;;;;;4969018;28;20063;-75
2022/08/12 06:20:48;;;;;;;6.38;3.13;;;16.90;90.70;;;;;;4968449;28;20031;-74
2022/08/12 06:23:14;;;;;;;4.18;2.55;;;17.10;89.40;;;;;;4960859;28;20047;-74
2022/08/12 06:25:40;;;;;;;5.78;2.80;;;17.30;87.70;;;;;;4973649;28;20036;-75
2022/08/12 06:28:20;;;;;;;3.38;2.45;;;17.50;86.90;;;;;;4958843;28;20046;-74
2022/08/12 06:30:46;;;;;;;2.80;2.55;;;17.70;86.90;;;;;;4967301;28;20437;-74
2022/08/12 06:33:12;;;;;;;3.45;2.45;;;17.90;87.00;;;;;;4969667;28;20095;-74
2022/08/12 06:35:40;;;;;;;4.53;2.80;;;18.00;86.30;;;;;;4956734;28;20115;-75
2022/08/12 06:38:14;;;;;;;4.70;2.35;;;18.20;85.50;;;;;;4965420;28;20032;-75
2022/08/12 06:43:32;;;;;;;5.03;2.97;;;18.30;85.00;;;;;;4979298;28;20039;-73
2022/08/12 06:45:58;;;;;;;5.53;2.67;;;18.60;83.80;;;;;;4975059;28;20031;-72
2022/08/12 06:48:27;;;;;;;3.97;2.75;;;18.70;83.00;;;;;;4975519;28;20031;-73
2022/08/12 06:50:54;;;;;;;7.68;2.60;;;18.70;83.30;;;;;;4973963;28;20043;-73
2022/08/12 06:53:20;;;;;;;3.42;2.58;;;18.90;82.80;;;;;;4970976;28;20038;-73
2022/08/12 06:55:46;;;;;;;4.30;2.47;;;19.10;82.40;;;;;;4973318;28;20457;-73
2022/08/12 06:58:13;;;;;;;4.75;2.50;;;19.20;81.60;;;;;;4973987;28;20051;-73
2022/08/12 07:00:42;;;;;;;5.28;2.50;;;19.40;80.80;;;;;;4974575;28;20031;-73
2022/08/12 07:03:09;;;;;;;4.90;2.63;;;19.60;80.30;;;;;;4970082;28;20032;-73
2022/08/12 07:05:34;;;;;;;5.25;2.53;;;19.70;79.10;;;;;;4965056;28;20044;-74
2022/08/12 07:08:00;;;;;;;7.95;3.00;;;19.90;79.20;;;;;;4964932;28;20545;-74
2022/08/12 07:10:26;;;;;;;4.18;2.28;;;20.00;78.50;;;;;;4965616;28;20474;-74
2022/08/12 07:12:55;;;;;;;3.55;2.47;;;20.20;79.10;;;;;;4965134;28;20028;-74
2022/08/12 07:15:24;;;;;;;2.53;2.30;;;20.40;77.50;;;;;;4971273;28;20079;-74
2022/08/12 07:17:58;;;;;;;4.22;2.35;;;20.50;76.10;;;;;;4974936;28;20504;-74
2022/08/12 07:20:28;;;;;;;3.45;2.38;;;20.70;76.30;;;;;;4973534;28;20039;-74
2022/08/12 07:22:54;;;;;;;4.25;2.65;;;20.80;75.20;;;;;;4975168;28;20030;-74
2022/08/12 07:25:33;;;;;;;5.30;2.55;;;21.00;74.60;;;;;;4971477;28;20120;-74
2022/08/12 07:28:02;;;;;;;3.05;2.35;;;21.30;75.20;;;;;;4960417;28;20035;-74
2022/08/12 07:30:30;;;;;;;3.55;2.47;;;21.60;73.50;;;;;;4962934;28;20138;-78
2022/08/12 07:33:00;;;;;;;4.93;2.80;;;21.70;73.30;;;;;;4958922;28;20032;-74
2022/08/12 07:35:26;;;;;;;5.65;2.60;;;21.90;71.30;;;;;;4961125;28;20398;-76
2022/08/12 07:37:52;;;;;;;3.80;2.20;;;22.20;72.10;;;;;;4958196;28;20036;-75
2022/08/12 07:40:19;;;;;;;2.78;2.50;;;22.40;70.80;;;;;;4960318;28;20040;-75
2022/08/12 07:42:44;;;;;;;2.83;2.42;;;22.50;69.70;;;;;;4972594;28;20410;-76
2022/08/12 07:45:12;;;;;;;7.13;2.40;;;22.70;69.00;;;;;;4975758;28;20050;-81
2022/08/12 07:47:42;;;;;;;4.00;2.50;;;22.90;67.70;;;;;;4963568;28;20035;-80
2022/08/12 07:50:12;;;;;;;3.80;2.50;;;23.20;67.10;;;;;;4973230;28;20505;-76
2022/08/12 07:52:41;;;;;;;5.53;2.40;;;23.40;69.40;;;;;;4965671;28;20035;-76
2022/08/12 07:55:07;;;;;;;5.95;2.40;;;23.60;66.20;;;;;;4956982;28;20062;-75
2022/08/12 07:57:34;;;;;;;4.40;2.38;;;23.80;65.50;;;;;;4965042;28;20119;-76
2022/08/12 08:00:02;;;;;;;2.85;2.28;;;23.90;65.00;;;;;;4964760;28;20043;-75
2022/08/12 08:02:30;;;;;;;6.13;2.30;;;24.20;63.90;;;;;;4968031;28;20039;-75
2022/08/12 08:04:55;;;;;;;4.40;2.38;;;24.40;63.00;;;;;;4965636;28;20505;-75
2022/08/12 08:07:23;;;;;;;2.78;2.42;;;24.50;63.20;;;;;;4967406;28;20043;-75
2022/08/12 08:09:49;;;;;;;6.68;2.42;;;24.70;62.20;;;;;;4967358;28;20039;-75
2022/08/12 08:14:59;;;;;;;3.17;2.17;;;25.10;60.20;;;;;;4973972;28;20047;-75
2022/08/12 08:17:25;;;;;;;3.25;2.60;;;25.20;59.80;;;;;;4972707;28;20795;-76
2022/08/12 08:19:54;;;;;;;4.60;2.47;;;25.20;60.00;;;;;;4959749;28;20044;-76
2022/08/12 08:22:20;;;;;;;2.63;2.10;;;25.30;59.00;;;;;;4964762;28;20034;-76
2022/08/12 08:24:56;;;;;;;4.38;2.10;;;25.50;59.00;;;;;;4969708;28;20055;-80
2022/08/12 08:27:22;;;;;;;3.47;2.20;;;25.70;59.10;;;;;;4970721;28;20091;-76
2022/08/12 08:29:48;;;;;;;3.72;2.15;;;26.10;58.10;;;;;;4971739;28;20146;-77
2022/08/12 08:32:14;;;;;;;4.28;2.22;;;26.20;57.50;;;;;;4967664;28;20087;-76
2022/08/12 08:34:40;;;;;;;6.18;2.47;;;26.20;56.80;;;;;;4965660;28;20127;-76
2022/08/12 08:37:06;;;;;;;5.22;2.10;;;26.40;57.40;;;;;;4964395;28;20428;-76
2022/08/12 08:39:33;;;;;;;4.38;2.08;;;26.40;56.80;;;;;;4964073;28;20051;-76
2022/08/12 08:44:43;;;;;;;3.63;2.55;;;26.70;56.70;;;;;;4965378;28;20047;-76
2022/08/12 08:47:10;;;;;;;4.50;2.00;;;26.80;54.80;;;;;;4976974;28;20031;-76
2022/08/12 08:49:36;;;;;;;2.85;2.10;;;26.80;55.70;;;;;;4961290;28;20043;-76
2022/08/12 08:52:07;;;;;;;3.65;2.10;;;26.90;55.30;;;;;;4965183;28;20035;-76
2022/08/12 08:54:33;;;;;;;4.78;2.03;;;26.70;54.90;;;;;;4957688;28;20094;-74
2022/08/12 08:57:03;;;;;;;3.25;2.00;;;26.60;54.90;;;;;;4965435;28;20036;-73
2022/08/12 08:59:29;;;;;;;5.28;2.60;;;26.60;54.90;;;;;;4970660;28;20082;-73
2022/08/12 09:01:55;;;;;;;2.38;1.90;;;26.90;55.80;;;;;;4966072;28;20122;-73
2022/08/12 09:04:22;;;;;;;3.60;2.05;;;27.00;55.40;;;;;;4969925;28;20053;-73
2022/08/12 09:06:58;;;;;;;5.20;1.90;;;27.20;53.80;;;;;;4967951;28;20118;-73
2022/08/12 09:09:24;;;;;;;3.97;2.15;;;27.30;54.40;;;;;;4974716;28;20587;-73
2022/08/12 09:14:34;;;;;;;3.95;1.92;;;27.80;53.10;;;;;;4958287;28;20561;-74
2022/08/12 09:16:59;;;;;;;5.10;1.92;;;28.10;52.10;;;;;;4958954;28;20048;-74
2022/08/12 09:19:25;;;;;;;5.68;2.10;;;28.40;52.10;;;;;;4960975;28;20047;-74
2022/08/12 09:21:51;;;;;;;6.75;2.10;;;28.20;51.50;;;;;;4970241;28;20089;-73
2022/08/12 09:24:20;;;;;;;2.90;2.10;;;28.20;51.60;;;;;;4964650;28;20082;-73
2022/08/12 09:26:47;;;;;;;2.40;1.95;;;28.40;51.60;;;;;;4969479;28;20047;-73
2022/08/12 09:29:21;;;;;;;4.63;2.00;;;28.40;51.10;;;;;;4964073;28;20576;-74
2022/08/12 09:31:47;;;;;;;4.57;2.03;;;28.50;51.40;;;;;;4967252;28;20090;-74
2022/08/12 09:34:14;;;;;;;2.40;1.75;;;28.60;51.10;;;;;;4972650;28;20050;-74
2022/08/12 09:36:40;;;;;;;7.15;1.88;;;28.70;49.40;;;;;;4971239;28;20413;-74
2022/08/12 09:39:06;;;;;;;4.65;2.20;;;28.80;50.80;;;;;;4959537;28;20039;-74
2022/08/12 09:41:39;;;;;;;3.53;2.03;;;28.90;50.00;;;;;;4961456;28;20039;-73
2022/08/12 09:46:49;;;;;;;6.63;2.00;;;29.40;48.60;;;;;;4964341;28;20044;-74
2022/08/12 09:49:16;;;;;;;5.85;2.00;;;29.40;48.90;;;;;;4957547;28;20398;-73
2022/08/12 09:51:42;;;;;;;2.80;1.80;;;29.20;47.40;;;;;;4972597;28;20891;-74
2022/08/12 09:54:12;;;;;;;5.60;1.67;;;29.00;47.70;;;;;;4959135;28;20095;-74
2022/08/12 09:56:42;;;;;;;2.70;1.77;;;29.00;48.20;;;;;;4967294;28;20035;-74
2022/08/12 09:59:08;;;;;;;3.28;1.70;;;29.20;47.50;;;;;;4967398;28;20051;-75
2022/08/12 10:01:37;;;;;;;1.92;1.73;;;29.30;47.60;;;;;;4958222;28;20038;-73
2022/08/12 10:04:10;;;;;;;2.83;1.77;;;29.50;46.80;;;;;;4961487;28;20052;-73
2022/08/12 10:06:41;;;;;;;4.63;1.90;;;29.70;46.40;;;;;;4968440;28;20413;-75
2022/08/12 10:09:08;;;;;;;3.55;2.10;;;29.70;46.60;;;;;;4966283;28;20035;-74
2022/08/12 10:14:19;;;;;;;3.65;1.70;;;30.10;45.90;;;;;;4962523;28;20047;-74
2022/08/12 10:16:45;;;;;;;4.40;1.55;;;30.10;45.50;;;;;;4957936;28;20061;-74
2022/08/12 10:19:11;;;;;;;4.47;1.90;;;30.30;45.30;;;;;;4966132;28;20409;-74
2022/08/12 10:21:40;;;;;;;3.50;1.92;;;30.30;44.60;;;;;;4975246;28;20147;-74
2022/08/12 10:24:08;;;;;;;2.78;1.58;;;30.50;44.40;;;;;;4974890;28;20776;-73
2022/08/12 10:29:38;;;;;;;3.97;1.50;;;30.20;44.10;;;;;;4961518;28;20105;-74
2022/08/12 10:32:19;;;;;;;4.95;1.85;;;30.10;44.70;;;;;;4974965;28;20094;-74
2022/08/12 10:34:44;;;;;;;4.47;1.55;;;30.10;45.40;;;;;;4956138;28;20562;-74
2022/08/12 10:37:10;;;;;;;3.85;1.50;;;30.10;45.60;;;;;;4972293;28;20038;-74
2022/08/12 10:39:38;;;;;;;2.95;1.75;;;30.20;45.40;;;;;;4966796;28;20513;-74
2022/08/12 10:44:52;;;;;;;2.90;1.45;;;30.20;44.90;;;;;;4964083;28;20039;-75
2022/08/12 10:47:20;;;;;;;2.85;1.52;;;30.70;44.80;;;;;;4974154;28;20114;-74
2022/08/12 10:49:47;;;;;;;6.10;1.63;;;30.90;43.80;;;;;;4971507;28;20040;-76
2022/08/12 10:52:13;;;;;;;3.63;1.70;;;30.90;43.80;;;;;;4970484;28;20035;-75
2022/08/12 10:54:41;;;;;;;3.75;1.63;;;30.80;43.30;;;;;;4965242;28;20095;-74
2022/08/12 10:57:07;;;;;;;2.70;1.52;;;30.00;44.30;;;;;;4956319;28;20561;-75
2022/08/12 10:59:33;;;;;;;2.70;1.83;;;30.20;44.00;;;;;;4955974;28;20138;-74
2022/08/12 11:01:59;;;;;;;4.20;1.70;;;30.50;44.00;;;;;;4970837;28;20096;-74
2022/08/12 11:04:28;;;;;;;3.15;1.50;;;30.80;43.70;;;;;;4957232;28;20054;-73
2022/08/12 11:06:55;;;;;;;4.43;1.80;;;30.60;43.40;;;;;;4967092;28;20032;-74
2022/08/12 11:09:30;;;;;;;5.82;1.85;;;30.70;44.10;;;;;;4969049;28;20516;-73
2022/08/12 11:11:58;;;;;;;1.92;1.58;;;31.00;43.60;;;;;;4968049;28;20035;-73
2022/08/12 11:14:40;;;;;;;3.45;1.50;;;31.30;43.10;;;;;;4955457;28;20036;-74
2022/08/12 11:17:11;;;;;;;5.00;1.40;;;31.50;42.00;;;;;;4966820;28;20527;-74
2022/08/12 11:19:44;;;;;;;3.70;1.25;;;31.70;43.10;;;;;;4961774;28;20102;-74
2022/08/12 11:22:11;;;;;;;1.35;1.25;;;31.60;41.30;;;;;;4980193;23;20043;-75
2022/08/12 11:24:37;;;;;;;3.50;1.52;;;31.30;41.80;;;;;;4974870;28;20047;-80
2022/08/12 11:27:06;;;;;;;4.50;1.42;;;31.50;42.10;;;;;;4975896;28;20031;-78
2022/08/12 11:29:35;;;;;;;2.67;1.27;;;31.70;42.30;;;;;;4976105;28;20035;-80
2022/08/12 11:32:01;;;;;;;3.13;1.20;;;31.90;41.20;;;;;;4970325;28;20095;-78
2022/08/12 11:34:26;;;;;;;1.50;1.40;;;31.90;41.20;;;;;;4958576;28;20068;-80
2022/08/12 11:36:59;;;;;;;3.15;1.35;;;31.60;40.90;;;;;;4956692;28;20034;-80
2022/08/12 11:39:25;;;;;;;1.65;1.27;;;31.40;42.00;;;;;;4952136;28;20107;-77
2022/08/12 11:41:51;;;;;;;4.63;1.70;;;31.50;42.30;;;;;;4955328;28;20451;-75
2022/08/12 11:44:17;;;;;;;2.63;1.40;;;31.90;42.30;;;;;;4954377;28;20075;-80
2022/08/12 11:46:43;;;;;;;3.15;1.50;;;32.50;40.70;;;;;;4954040;28;20046;-75
2022/08/12 11:49:09;;;;;;;3.30;1.42;;;32.80;40.60;;;;;;4956663;28;20063;-80
2022/08/12 11:51:36;;;;;;;2.30;1.30;;;32.60;40.40;;;;;;4958062;28;20027;-81
2022/08/12 11:54:02;;;;;;;3.10;1.60;;;33.00;40.70;;;;;;4955518;28;20052;-77
2022/08/12 11:56:28;;;;;;;4.28;1.50;;;32.50;39.60;;;;;;4953268;28;20031;-62
2022/08/12 11:58:54;;;;;;;3.33;1.55;;;32.60;40.80;;;;;;4954632;28;20378;-80
2022/08/12 12:01:19;;;;;;;2.17;1.20;;;33.10;41.90;;;;;;4955996;28;20038;-78
2022/08/12 12:03:45;;;;;;;4.88;1.70;;;33.00;39.70;;;;;;4955385;28;20410;-76
2022/08/12 12:06:11;;;;;;;3.97;1.40;;;32.60;40.00;;;;;;4944594;28;20128;-76
2022/08/12 12:08:37;;;;;;;4.88;1.85;;;32.80;39.30;;;;;;4947863;28;20090;-78
2022/08/12 12:11:02;;;;;;;3.60;1.90;;;32.20;39.40;;;;;;4947766;28;20393;-78
2022/08/12 12:13:28;;;;;;;3.10;1.45;;;32.30;40.70;;;;;;4951186;28;20048;-84
2022/08/12 12:15:53;;;;;;;1.85;1.33;;;32.90;40.40;;;;;;4951934;28;20426;-81
2022/08/12 12:18:25;;;;;;;2.67;1.50;;;33.50;39.70;;;;;;4957767;28;20035;-78
2022/08/12 12:20:54;;;;;;;1.60;1.33;;;33.70;38.10;;;;;;4958436;28;20494;-73
2022/08/12 12:23:20;;;;;;;2.05;1.30;;;33.80;38.60;;;;;;4959435;28;20126;-77
2022/08/12 12:25:46;;;;;;;1.98;1.40;;;34.10;38.60;;;;;;4959638;28;20040;-75
2022/08/12 12:28:12;;;;;;;3.60;1.35;;;34.60;38.60;;;;;;4958989;28;20036;-79
2022/08/12 12:30:38;;;;;;;2.40;1.30;;;34.30;36.60;;;;;;4959351;28;20040;-79
2022/08/12 12:33:05;;;;;;;2.17;1.30;;;33.20;37.70;;;;;;4958002;28;20502;-79
2022/08/12 12:35:31;;;;;;;2.90;1.40;;;33.00;38.20;;;;;;4958576;28;20565;-78
2022/08/12 12:38:02;;;;;;;1.80;1.40;;;33.00;38.70;;;;;;4957594;28;20043;-78
2022/08/12 12:40:29;;;;;;;3.70;1.45;;;33.30;38.30;;;;;;4959620;28;20039;-79
2022/08/12 12:42:54;;;;;;;2.17;1.45;;;33.60;39.60;;;;;;4959457;28;20046;-79
2022/08/12 12:45:21;;;;;;;2.50;1.40;;;33.70;37.90;;;;;;4958903;28;20042;-79
2022/08/12 12:48:03;;;;;;;3.72;1.38;;;33.20;38.00;;;;;;4960186;28;20036;-79
2022/08/12 12:50:33;;;;;;;2.08;1.40;;;32.80;38.30;;;;;;4959575;28;20032;-79
2022/08/12 12:52:59;;;;;;;3.72;1.30;;;33.10;38.60;;;;;;4958790;28;20114;-80
2022/08/12 12:55:25;;;;;;;2.70;1.30;;;33.30;38.70;;;;;;4958638;28;20070;-79
2022/08/12 12:57:51;;;;;;;2.75;1.52;;;33.30;38.10;;;;;;4958508;28;20127;-79
2022/08/12 13:00:19;;;;;;;1.95;1.40;;;33.90;38.50;;;;;;4956155;28;20130;-79
2022/08/12 13:02:54;;;;;;;3.15;1.50;;;34.30;38.60;;;;;;4956621;28;20410;-79
2022/08/12 13:05:28;;;;;;;2.78;1.60;;;34.40;37.00;;;;;;4952890;28;20491;-79
2022/08/12 13:07:59;;;;;;;2.08;1.50;;;34.20;36.70;;;;;;4951165;28;20091;-79
2022/08/12 13:10:25;;;;;;;5.80;1.50;;;33.70;36.40;;;;;;4959825;28;20028;-78
2022/08/12 13:12:53;;;;;;;3.80;1.45;;;33.10;38.90;;;;;;4958293;28;20108;-79
2022/08/12 13:15:19;;;;;;;2.65;1.30;;;33.10;39.80;;;;;;4960053;28;20040;-80
2022/08/12 13:17:48;;;;;;;4.75;1.35;;;33.50;37.90;;;;;;4958788;28;20107;-79
2022/08/12 13:20:15;;;;;;;5.28;1.38;;;34.30;36.80;;;;;;4959711;28;20047;-80
2022/08/12 13:22:40;;;;;;;1.70;1.33;;;34.00;36.60;;;;;;4958357;28;20040;-79
2022/08/12 13:25:07;;;;;;;2.75;1.50;;;32.90;37.90;;;;;;4959731;28;20046;-80
2022/08/12 13:27:35;;;;;;;2.42;1.30;;;33.50;39.20;;;;;;4959471;28;20066;-81
2022/08/12 13:30:11;;;;;;;3.15;1.33;;;34.00;37.60;;;;;;4960194;28;20078;-78
2022/08/12 13:32:44;;;;;;;3.03;1.50;;;34.70;36.60;;;;;;4944566;28;20039;-78
2022/08/12 13:35:15;;;;;;;3.38;1.20;;;34.70;36.70;;;;;;4947441;28;20091;-79
2022/08/12 13:37:41;;;;;;;3.58;1.50;;;35.10;36.20;;;;;;4958501;28;20520;-77
2022/08/12 13:40:09;;;;;;;3.60;1.50;;;35.50;35.20;;;;;;4959592;28;20032;-78
2022/08/12 13:42:38;;;;;;;3.13;1.02;;;36.00;34.20;;;;;;4958918;28;20509;-81
2022/08/12 13:45:05;;;;;;;2.90;1.30;;;36.20;34.10;;;;;;4960835;28;20050;-79
2022/08/12 13:48:00;;;;;;;4.30;1.40;;;36.30;34.00;;;;;;4961408;28;20569;-80
2022/08/12 13:50:37;;;;;;;2.47;1.20;;;36.60;34.10;;;;;;4941448;28;20047;-78
2022/08/12 13:53:14;;;;;;;3.53;1.35;;;36.40;33.40;;;;;;4953707;28;20545;-78
2022/08/12 13:55:52;;;;;;;1.67;1.20;;;34.60;35.40;;;;;;4949313;28;20043;-78
2022/08/12 13:58:20;;;;;;;3.67;1.30;;;34.10;36.50;;;;;;4955363;28;20035;-78
2022/08/12 14:00:53;;;;;;;3.28;1.27;;;35.40;36.00;;;;;;4955647;28;20840;-77
2022/08/12 14:03:21;;;;;;;2.30;1.73;;;36.70;36.40;;;;;;4953881;28;20561;-78
2022/08/12 14:05:47;;;;;;;1.65;1.40;;;36.40;34.80;;;;;;4955523;28;20044;-78
2022/08/12 14:08:14;;;;;;;2.92;1.20;;;35.10;36.50;;;;;;4955825;28;20035;-79
2022/08/12 14:10:54;;;;;;;2.75;1.50;;;35.00;35.80;;;;;;4956937;28;20493;-79
2022/08/12 14:13:26;;;;;;;2.08;1.45;;;36.30;34.70;;;;;;4958375;28;20111;-79
2022/08/12 14:16:01;;;;;;;3.63;1.50;;;37.80;33.90;;;;;;4959210;28;20043;-77
2022/08/12 14:18:32;;;;;;;3.65;1.35;;;38.30;32.30;;;;;;4958628;28;20043;-79
2022/08/12 14:21:00;;;;;;;3.28;1.50;;;38.50;32.50;;;;;;4957889;28;20051;-80
2022/08/12 14:23:51;;;;;;;2.53;1.30;;;38.40;32.20;;;;;;4959336;28;20039;-80
2022/08/12 14:26:23;;;;;;;2.97;1.52;;;38.40;32.30;;;;;;4957762;28;20149;-79
2022/08/12 14:28:53;;;;;;;2.17;1.52;;;38.70;32.70;;;;;;4959364;28;20652;-78
2022/08/12 14:31:22;;;;;;;2.63;1.40;;;37.90;32.10;;;;;;4957633;28;20043;-79
2022/08/12 14:33:50;;;;;;;2.30;1.40;;;35.80;33.90;;;;;;4956649;28;20059;-80
2022/08/12 14:36:22;;;;;;;2.85;1.48;;;35.70;35.10;;;;;;4957038;28;20118;-80
2022/08/12 14:38:51;;;;;;;2.50;1.50;;;37.30;33.90;;;;;;4960350;28;20043;-79
2022/08/12 14:41:19;;;;;;;2.83;1.40;;;38.80;32.90;;;;;;4960950;28;20043;-81
2022/08/12 14:43:47;;;;;;;1.90;1.40;;;40.20;32.50;;;;;;4959192;28;20054;-80
2022/08/12 14:46:26;;;;;;;1.63;1.30;;;40.60;30.60;;;;;;4956567;28;20059;-84
2022/08/12 14:48:53;;;;;;;1.95;1.67;;;40.40;32.10;;;;;;4953259;28;20035;-81
2022/08/12 14:51:21;;;;;;;1.60;1.50;;;41.20;30.00;;;;;;4947073;28;20040;-80
2022/08/12 14:53:49;;;;;;;3.60;1.60;;;41.60;29.20;;;;;;4952810;28;20047;-81
2022/08/12 14:56:16;;;;;;;1.85;1.35;;;38.30;30.90;;;;;;4952608;28;20486;-80
2022/08/12 15:01:40;;;;;;;4.47;1.60;;;35.80;34.70;;;;;;4945848;28;20040;-82
2022/08/12 15:04:07;;;;;;;3.00;1.58;;;37.70;32.80;;;;;;4960419;28;20050;-78
2022/08/12 15:06:32;;;;;;;2.72;1.50;;;40.00;31.30;;;;;;4960179;28;20102;-80
2022/08/12 15:08:58;;;;;;;2.83;1.17;;;40.60;30.50;;;;;;4958073;28;20485;-80
2022/08/12 15:11:25;;;;;;;1.88;1.42;;;40.60;29.30;;;;;;4950470;28;20456;-80
2022/08/12 15:13:52;;;;;;;1.40;1.30;;;41.50;29.40;;;;;;4950817;28;20524;-81
2022/08/12 15:16:19;;;;;;;2.30;1.40;;;42.90;28.40;;;;;;4950109;28;20509;-82
2022/08/12 15:18:45;;;;;;;3.30;1.60;;;44.40;27.40;;;;;;4948149;28;20038;-79
2022/08/12 15:21:11;;;;;;;2.65;1.58;;;43.40;27.60;;;;;;4958788;28;20122;-80
2022/08/12 15:23:38;;;;;;;6.10;1.77;;;42.70;27.40;;;;;;4963727;28;20533;-79
2022/08/12 15:26:12;;;;;;;2.03;1.25;;;43.50;27.20;;;;;;4956846;28;20040;-80
2022/08/12 15:28:41;;;;;;;2.65;1.50;;;42.40;27.30;;;;;;4949138;28;20912;-80
2022/08/12 15:31:16;;;;;;;3.70;1.65;;;42.50;27.50;;;;;;4952256;28;20119;-81
2022/08/12 15:33:42;;;;;;;4.90;1.75;;;43.50;27.20;;;;;;4946140;28;20046;-79
2022/08/12 15:36:09;;;;;;;1.95;1.60;;;43.60;27.10;;;;;;4951311;28;20063;-80
2022/08/12 15:38:36;;;;;;;5.35;1.50;;;43.40;26.90;;;;;;4961366;28;20096;-80
2022/08/12 15:41:05;;;;;;;2.55;1.50;;;44.70;26.50;;;;;;4961993;28;20517;-80
2022/08/12 15:43:35;;;;;;;2.55;1.70;;;44.90;26.60;;;;;;4960966;28;20051;-81
2022/08/12 15:46:02;;;;;;;2.28;1.35;;;44.00;27.00;;;;;;4959728;28;20040;-80
2022/08/12 15:48:31;;;;;;;2.65;1.15;;;41.50;26.80;;;;;;4963192;28;20869;-79
2022/08/12 15:50:58;;;;;;;2.45;1.20;;;39.70;28.50;;;;;;4951096;28;20036;-80
2022/08/12 15:56:09;;;;;;;3.90;1.30;;;37.50;30.20;;;;;;4963523;28;20063;-79
2022/08/12 15:58:37;;;;;;;1.85;1.30;;;38.60;31.10;;;;;;4964452;28;20035;-79
2022/08/12 16:01:03;;;;;;;2.97;1.30;;;40.40;29.60;;;;;;4962959;28;20067;-80
2022/08/12 16:03:32;;;;;;;2.75;1.30;;;42.10;28.40;;;;;;4961850;28;20039;-79
2022/08/12 16:05:58;;;;;;;2.42;1.33;;;43.70;27.90;;;;;;4963011;28;20099;-79
2022/08/12 16:08:24;;;;;;;2.40;1.35;;;44.10;27.50;;;;;;4961535;28;20036;-79
2022/08/12 16:10:51;;;;;;;2.45;1.27;;;43.50;27.00;;;;;;4962202;28;20051;-77
2022/08/12 16:13:18;;;;;;;3.08;1.30;;;41.10;27.70;;;;;;4961760;28;20126;-77
2022/08/12 16:15:45;;;;;;;2.83;1.27;;;38.00;30.10;;;;;;4963878;28;20123;-78
2022/08/12 16:18:16;;;;;;;1.30;1.20;;;37.20;31.20;;;;;;4960855;28;20474;-78
2022/08/12 16:20:42;;;;;;;2.38;1.08;;;35.30;32.50;;;;;;4959489;28;20098;-78
2022/08/12 16:23:10;;;;;;;4.85;1.20;;;33.60;34.40;;;;;;4960015;28;20044;-78
2022/08/12 16:25:39;;;;;;;1.55;1.10;;;33.50;35.50;;;;;;4960264;28;20039;-78
2022/08/12 16:28:07;;;;;;;3.25;1.20;;;35.70;33.70;;;;;;4961401;28;20109;-79
2022/08/12 16:30:33;;;;;;;2.70;1.13;;;38.50;31.30;;;;;;4958721;28;20036;-79
2022/08/12 16:33:13;;;;;;;2.58;1.05;;;40.10;29.40;;;;;;4950841;28;20136;-79
2022/08/12 16:35:40;;;;;;;1.67;1.10;;;40.60;28.50;;;;;;4951446;28;20039;-79
2022/08/12 16:38:08;;;;;;;1.67;1.30;;;41.30;28.70;;;;;;4953541;28;20466;-77
2022/08/12 16:40:36;;;;;;;4.03;1.50;;;41.60;29.00;;;;;;4950760;28;20058;-79
2022/08/12 16:43:05;;;;;;;2.22;1.20;;;42.00;28.10;;;;;;4958967;28;20604;-78
2022/08/12 16:45:33;;;;;;;2.92;1.30;;;42.30;28.90;;;;;;4956896;28;20545;-77
2022/08/12 16:47:59;;;;;;;1.40;1.30;;;42.30;27.90;;;;;;4959238;28;20035;-78
2022/08/12 16:50:26;;;;;;;2.22;1.23;;;40.90;28.50;;;;;;4959047;28;20181;-76
2022/08/12 16:52:55;;;;;;;4.82;1.42;;;39.80;29.50;;;;;;4959082;28;20079;-76
2022/08/12 16:55:21;;;;;;;1.70;1.10;;;38.70;30.20;;;;;;4957273;28;20037;-76
2022/08/12 16:57:49;;;;;;;3.35;1.38;;;37.20;31.10;;;;;;4958211;28;20379;-78
2022/08/12 17:00:17;;;;;;;1.77;1.23;;;36.10;32.60;;;;;;4960613;28;20055;-79
2022/08/12 17:02:44;;;;;;;3.70;1.25;;;34.70;33.80;;;;;;4959772;28;20038;-77
2022/08/12 17:05:14;;;;;;;1.80;1.10;;;33.20;35.40;;;;;;4959097;28;20035;-75
2022/08/12 17:07:41;;;;;;;3.60;1.30;;;32.30;36.20;;;;;;4960700;28;20024;-76
2022/08/12 17:10:17;;;;;;;1.23;0.95;;;31.40;37.10;;;;;;4961319;28;20043;-76
2022/08/12 17:12:43;;;;;;;3.35;1.30;;;30.80;38.20;;;;;;4961031;28;20036;-79
2022/08/12 17:15:10;;;;;;;3.47;1.00;;;30.40;38.50;;;;;;4965195;28;20466;-78
2022/08/12 17:17:37;;;;;;;2.47;1.25;;;30.10;39.80;;;;;;4961821;28;20051;-80
2022/08/12 17:20:05;;;;;;;3.90;1.10;;;29.80;40.10;;;;;;4960776;28;20040;-78
2022/08/12 17:22:32;;;;;;;2.30;1.10;;;29.50;40.70;;;;;;4962807;28;20039;-79